Thor Heyerdahl — DKQH — position and weather

sailwx.info

Track history (hours):
 
Tides and Currents Weather Stations Pressure Air Temp Water Temp Dewpoint Dewpoint Depression Visibility Wind Speed Wind Dir Waves Ship Positions

Thor Heyerdahl

Last reported at 2017-Sep-21 07:01 UTC. Time now 2017-Sep-24 06:59 UTC.
Position N 54°26' E 010°11'.

beam 6.5 m; draft 2.2 m.

Type: Sailing vessel. MMSI: 211232340.

Date/timePositionNaut miles runAvg speedWind from/ knotsBaromVisibWave heightAir tempDewpointWater temp
2017-Sep-21 07:01N 54°26' E 010°11'0 2.1
2017-Sep-21 07:00N 54°26' E 010°11'0 0.1
2017-Sep-21 06:20N 54°26' E 010°11'0 0.0
2017-Sep-21 05:56N 54°26' E 010°11'0 0.0
2017-Sep-21 05:14N 54°26' E 010°11'0 0.0
2017-Sep-21 04:59N 54°26' E 010°11'8 0.6
2017-Sep-20 14:58N 54°31' E 010°20'5 4.8
2017-Sep-20 14:00N 54°33' E 010°27'2 3.4
2017-Sep-20 13:31N 54°34' E 010°30'1 2.4
2017-Sep-20 12:59N 54°35' E 010°31'2 3.3
2017-Sep-20 12:29N 54°37' E 010°31'2 3.1
2017-Sep-20 12:00N 54°38' E 010°31'2 3.4
2017-Sep-20 11:30N 54°40' E 010°30'2 3.1
2017-Sep-20 10:59N 54°41' E 010°28'1 2.3
2017-Sep-20 10:30N 54°42' E 010°28'1 2.9
2017-Sep-20 10:00N 54°44' E 010°28'1 2.4
2017-Sep-20 09:30N 54°45' E 010°27'1 2.9
2017-Sep-20 09:01N 54°47' E 010°27'2 3.6
2017-Sep-20 08:31N 54°48' E 010°27'1 2.2
2017-Sep-20 08:00N 54°49' E 010°27'0 0.0
2017-Sep-20 07:30N 54°49' E 010°27'0 0.0
2017-Sep-20 07:00N 54°49' E 010°27'0 0.0
2017-Sep-20 06:27N 54°49' E 010°27'0 0.0
2017-Sep-20 06:00N 54°49' E 010°27'0 0.0
2017-Sep-20 05:30N 54°49' E 010°27'0 0.0
2017-Sep-20 05:00N 54°49' E 010°27'0 0.0
2017-Sep-20 04:30N 54°49' E 010°27'0 0.0
2017-Sep-20 03:54N 54°49' E 010°27'0 0.0
2017-Sep-20 03:30N 54°49' E 010°27'0 0.0
2017-Sep-20 03:00N 54°49' E 010°27'0 0.0
2017-Sep-20 02:30N 54°49' E 010°27'0 0.0
2017-Sep-20 02:00N 54°49' E 010°27'0 0.0
2017-Sep-20 01:27N 54°49' E 010°27'0 0.0
2017-Sep-20 01:00N 54°49' E 010°27'0 0.0
2017-Sep-20 00:30N 54°49' E 010°27'0 0.0
2017-Sep-20 00:00N 54°49' E 010°27'0 0.0
2017-Sep-19 23:30N 54°49' E 010°27'0 0.0
2017-Sep-19 23:00N 54°49' E 010°27'0 0.0
2017-Sep-19 22:27N 54°49' E 010°27'0 0.0
2017-Sep-19 21:54N 54°49' E 010°27'0 0.0
2017-Sep-19 21:30N 54°49' E 010°27'0 0.0
2017-Sep-19 20:57N 54°49' E 010°27'0 0.0
2017-Sep-19 20:27N 54°49' E 010°27'0 0.0
2017-Sep-19 20:00N 54°49' E 010°27'0 0.0
2017-Sep-19 19:30N 54°49' E 010°27'0 0.0
2017-Sep-19 18:57N 54°49' E 010°27'0 0.0
2017-Sep-19 18:27N 54°49' E 010°27'0 0.0
2017-Sep-19 18:00N 54°49' E 010°27'0 0.0
2017-Sep-19 17:27N 54°49' E 010°27'0 0.0
2017-Sep-19 16:57N 54°49' E 010°27'0 0.1
2017-Sep-19 16:30N 54°49' E 010°27'1 2.1
2017-Sep-19 16:00N 54°50' E 010°28'1 2.2
2017-Sep-19 15:30N 54°49' E 010°30'2 3.4
2017-Sep-19 15:00N 54°48' E 010°31'1 1.5
2017-Sep-19 14:30N 54°47' E 010°31'1 2.5
2017-Sep-19 14:00N 54°48' E 010°30'1 2.0
2017-Sep-19 13:31N 54°49' E 010°29'1 2.0
2017-Sep-19 13:01N 54°50' E 010°29'2 3.7
2017-Sep-19 12:31N 54°51' E 010°33'1 2.1
2017-Sep-19 12:00N 54°51' E 010°31'0 0.0
2017-Sep-19 11:28N 54°51' E 010°31'0 0.0
2017-Sep-19 10:58N 54°51' E 010°31'0 0.0
2017-Sep-19 10:25N 54°51' E 010°31'0 0.0
2017-Sep-19 09:55N 54°51' E 010°31'0 0.0
2017-Sep-19 09:30N 54°51' E 010°31'0 1.0
2017-Sep-19 09:00N 54°51' E 010°32'1 2.5
2017-Sep-19 08:30N 54°50' E 010°31'2 5.0
2017-Sep-19 08:00N 54°50' E 010°27'0 0.1
2017-Sep-19 07:29N 54°50' E 010°27'0 0.0
2017-Sep-19 06:56N 54°50' E 010°27'0 0.0
2017-Sep-19 06:29N 54°50' E 010°27'0 0.1
2017-Sep-19 05:59N 54°50' E 010°27'0 0.0
2017-Sep-19 05:29N 54°50' E 010°27'0 0.0
2017-Sep-19 04:59N 54°50' E 010°27'0 0.0
2017-Sep-19 04:29N 54°50' E 010°27'0 0.0
2017-Sep-19 03:59N 54°50' E 010°27'0 0.0
2017-Sep-19 03:29N 54°50' E 010°27'0 0.0
2017-Sep-19 02:59N 54°50' E 010°27'0 0.0
2017-Sep-19 02:29N 54°50' E 010°27'0 0.0
2017-Sep-19 01:59N 54°50' E 010°27'0 0.0
2017-Sep-19 01:29N 54°50' E 010°27'0 0.0
2017-Sep-19 00:59N 54°50' E 010°27'0 0.0
2017-Sep-19 00:29N 54°50' E 010°27'0 0.0
2017-Sep-18 23:59N 54°50' E 010°27'0 0.0
2017-Sep-18 23:29N 54°50' E 010°27'0 0.0
2017-Sep-18 22:59N 54°50' E 010°27'0 0.0
2017-Sep-18 22:29N 54°50' E 010°27'0 0.0
2017-Sep-18 21:59N 54°50' E 010°27'0 0.0
2017-Sep-18 21:26N 54°50' E 010°27'0 0.0
2017-Sep-18 20:59N 54°50' E 010°27'0 0.0
2017-Sep-18 20:29N 54°50' E 010°27'0 0.0
2017-Sep-18 19:56N 54°50' E 010°27'0 0.0
2017-Sep-18 19:29N 54°50' E 010°27'0 0.0
2017-Sep-18 18:56N 54°50' E 010°27'0 0.0
2017-Sep-18 18:29N 54°50' E 010°27'0 0.0
2017-Sep-18 17:56N 54°50' E 010°27'0 0.0
2017-Sep-18 17:29N 54°50' E 010°27'0 0.2
2017-Sep-18 17:00N 54°50' E 010°27'1 1.1
2017-Sep-18 16:30N 54°49' E 010°27'2 3.8
2017-Sep-18 16:00N 54°47' E 010°25'2 4.6
2017-Sep-18 15:30N 54°45' E 010°24'2 4.9
2017-Sep-18 15:00N 54°43' E 010°22'3 5.1
2017-Sep-18 14:30N 54°41' E 010°20'3 5.0
2017-Sep-18 14:00N 54°38' E 010°19'3 5.1
2017-Sep-18 13:28N 54°36' E 010°17'2 5.0
2017-Sep-18 13:00N 54°33' E 010°16'8 0.2
2017-Sep-17 04:39N 54°35' E 010°03'1 0.0
2017-Sep-16 15:40N 54°36' E 010°03'0 0.1
2017-Sep-16 14:33N 54°36' E 010°03'  
2017-Sep-11 15:58N 54°48' E 010°11'3 5.9
2017-Sep-11 15:30N 54°45' E 010°12'3 4.9
2017-Sep-11 14:54N 54°42' E 010°12'2 4.7
2017-Sep-11 14:30N 54°40' E 010°12'3 5.6
2017-Sep-11 14:00N 54°38' E 010°12'3 6.0
2017-Sep-11 13:25N 54°34' E 010°13'  
Track history (hours):
 
Tides and Currents Weather Stations Pressure Air Temp Water Temp Dewpoint Dewpoint Depression Visibility Wind Speed Wind Dir Waves Ship Positions

Thor Heyerdahl

Last reported at 2017-Sep-21 07:01 UTC. Time now 2017-Sep-24 06:59 UTC.
Position N 54°26' E 010°11'.

beam 6.5 m; draft 2.2 m.

Type: Sailing vessel. MMSI: 211232340.

Date/timePositionNaut miles runAvg speedWind from/ knotsBaromVisibWave heightAir tempDewpointWater temp
2017-Sep-21 07:01N 54°26' E 010°11'0 2.1
2017-Sep-21 07:00N 54°26' E 010°11'0 0.1
2017-Sep-21 06:20N 54°26' E 010°11'0 0.0
2017-Sep-21 05:56N 54°26' E 010°11'0 0.0
2017-Sep-21 05:14N 54°26' E 010°11'0 0.0
2017-Sep-21 04:59N 54°26' E 010°11'8 0.6
2017-Sep-20 14:58N 54°31' E 010°20'5 4.8
2017-Sep-20 14:00N 54°33' E 010°27'2 3.4
2017-Sep-20 13:31N 54°34' E 010°30'1 2.4
2017-Sep-20 12:59N 54°35' E 010°31'2 3.3
2017-Sep-20 12:29N 54°37' E 010°31'2 3.1
2017-Sep-20 12:00N 54°38' E 010°31'2 3.4
2017-Sep-20 11:30N 54°40' E 010°30'2 3.1
2017-Sep-20 10:59N 54°41' E 010°28'1 2.3
2017-Sep-20 10:30N 54°42' E 010°28'1 2.9
2017-Sep-20 10:00N 54°44' E 010°28'1 2.4
2017-Sep-20 09:30N 54°45' E 010°27'1 2.9
2017-Sep-20 09:01N 54°47' E 010°27'2 3.6
2017-Sep-20 08:31N 54°48' E 010°27'1 2.2
2017-Sep-20 08:00N 54°49' E 010°27'0 0.0
2017-Sep-20 07:30N 54°49' E 010°27'0 0.0
2017-Sep-20 07:00N 54°49' E 010°27'0 0.0
2017-Sep-20 06:27N 54°49' E 010°27'0 0.0
2017-Sep-20 06:00N 54°49' E 010°27'0 0.0
2017-Sep-20 05:30N 54°49' E 010°27'0 0.0
2017-Sep-20 05:00N 54°49' E 010°27'0 0.0
2017-Sep-20 04:30N 54°49' E 010°27'0 0.0
2017-Sep-20 03:54N 54°49' E 010°27'0 0.0
2017-Sep-20 03:30N 54°49' E 010°27'0 0.0
2017-Sep-20 03:00N 54°49' E 010°27'0 0.0
2017-Sep-20 02:30N 54°49' E 010°27'0 0.0
2017-Sep-20 02:00N 54°49' E 010°27'0 0.0
2017-Sep-20 01:27N 54°49' E 010°27'0 0.0
2017-Sep-20 01:00N 54°49' E 010°27'0 0.0
2017-Sep-20 00:30N 54°49' E 010°27'0 0.0
2017-Sep-20 00:00N 54°49' E 010°27'0 0.0
2017-Sep-19 23:30N 54°49' E 010°27'0 0.0
2017-Sep-19 23:00N 54°49' E 010°27'0 0.0
2017-Sep-19 22:27N 54°49' E 010°27'0 0.0
2017-Sep-19 21:54N 54°49' E 010°27'0 0.0
2017-Sep-19 21:30N 54°49' E 010°27'0 0.0
2017-Sep-19 20:57N 54°49' E 010°27'0 0.0
2017-Sep-19 20:27N 54°49' E 010°27'0 0.0
2017-Sep-19 20:00N 54°49' E 010°27'0 0.0
2017-Sep-19 19:30N 54°49' E 010°27'0 0.0
2017-Sep-19 18:57N 54°49' E 010°27'0 0.0
2017-Sep-19 18:27N 54°49' E 010°27'0 0.0
2017-Sep-19 18:00N 54°49' E 010°27'0 0.0
2017-Sep-19 17:27N 54°49' E 010°27'0 0.0
2017-Sep-19 16:57N 54°49' E 010°27'0 0.1
2017-Sep-19 16:30N 54°49' E 010°27'1 2.1
2017-Sep-19 16:00N 54°50' E 010°28'1 2.2
2017-Sep-19 15:30N 54°49' E 010°30'2 3.4
2017-Sep-19 15:00N 54°48' E 010°31'1 1.5
2017-Sep-19 14:30N 54°47' E 010°31'1 2.5
2017-Sep-19 14:00N 54°48' E 010°30'1 2.0
2017-Sep-19 13:31N 54°49' E 010°29'1 2.0
2017-Sep-19 13:01N 54°50' E 010°29'2 3.7
2017-Sep-19 12:31N 54°51' E 010°33'1 2.1
2017-Sep-19 12:00N 54°51' E 010°31'0 0.0
2017-Sep-19 11:28N 54°51' E 010°31'0 0.0
2017-Sep-19 10:58N 54°51' E 010°31'0 0.0
2017-Sep-19 10:25N 54°51' E 010°31'0 0.0
2017-Sep-19 09:55N 54°51' E 010°31'0 0.0
2017-Sep-19 09:30N 54°51' E 010°31'0 1.0
2017-Sep-19 09:00N 54°51' E 010°32'1 2.5
2017-Sep-19 08:30N 54°50' E 010°31'2 5.0
2017-Sep-19 08:00N 54°50' E 010°27'0 0.1
2017-Sep-19 07:29N 54°50' E 010°27'0 0.0
2017-Sep-19 06:56N 54°50' E 010°27'0 0.0
2017-Sep-19 06:29N 54°50' E 010°27'0 0.1
2017-Sep-19 05:59N 54°50' E 010°27'0 0.0
2017-Sep-19 05:29N 54°50' E 010°27'0 0.0
2017-Sep-19 04:59N 54°50' E 010°27'0 0.0
2017-Sep-19 04:29N 54°50' E 010°27'0 0.0
2017-Sep-19 03:59N 54°50' E 010°27'0 0.0
2017-Sep-19 03:29N 54°50' E 010°27'0 0.0
2017-Sep-19 02:59N 54°50' E 010°27'0 0.0
2017-Sep-19 02:29N 54°50' E 010°27'0 0.0
2017-Sep-19 01:59N 54°50' E 010°27'0 0.0
2017-Sep-19 01:29N 54°50' E 010°27'0 0.0
2017-Sep-19 00:59N 54°50' E 010°27'0 0.0
2017-Sep-19 00:29N 54°50' E 010°27'0 0.0
2017-Sep-18 23:59N 54°50' E 010°27'0 0.0
2017-Sep-18 23:29N 54°50' E 010°27'0 0.0
2017-Sep-18 22:59N 54°50' E 010°27'0 0.0
2017-Sep-18 22:29N 54°50' E 010°27'0 0.0
2017-Sep-18 21:59N 54°50' E 010°27'0 0.0
2017-Sep-18 21:26N 54°50' E 010°27'0 0.0
2017-Sep-18 20:59N 54°50' E 010°27'0 0.0
2017-Sep-18 20:29N 54°50' E 010°27'0 0.0
2017-Sep-18 19:56N 54°50' E 010°27'0 0.0
2017-Sep-18 19:29N 54°50' E 010°27'0 0.0
2017-Sep-18 18:56N 54°50' E 010°27'0 0.0
2017-Sep-18 18:29N 54°50' E 010°27'0 0.0
2017-Sep-18 17:56N 54°50' E 010°27'0 0.0
2017-Sep-18 17:29N 54°50' E 010°27'0 0.2
2017-Sep-18 17:00N 54°50' E 010°27'1 1.1
2017-Sep-18 16:30N 54°49' E 010°27'2 3.8
2017-Sep-18 16:00N 54°47' E 010°25'2 4.6
2017-Sep-18 15:30N 54°45' E 010°24'2 4.9
2017-Sep-18 15:00N 54°43' E 010°22'3 5.1
2017-Sep-18 14:30N 54°41' E 010°20'3 5.0
2017-Sep-18 14:00N 54°38' E 010°19'3 5.1
2017-Sep-18 13:28N 54°36' E 010°17'2 5.0
2017-Sep-18 13:00N 54°33' E 010°16'8 0.2
2017-Sep-17 04:39N 54°35' E 010°03'1 0.0
2017-Sep-16 15:40N 54°36' E 010°03'0 0.1
2017-Sep-16 14:33N 54°36' E 010°03'  
2017-Sep-11 15:58N 54°48' E 010°11'3 5.9
2017-Sep-11 15:30N 54°45' E 010°12'3 4.9
2017-Sep-11 14:54N 54°42' E 010°12'2 4.7
2017-Sep-11 14:30N 54°40' E 010°12'3 5.6
2017-Sep-11 14:00N 54°38' E 010°12'3 6.0
2017-Sep-11 13:25N 54°34' E 010°13'  

Dump ship's entire track history